sensor_id;sensor_type;location;lat;lon;timestamp;temperature;humidity
39103;DHT22;24847;48.218;16.414;2023-04-25T00:03:16;11.10;99.90
39103;DHT22;24847;48.218;16.414;2023-04-25T00:08:19;11.10;99.90
39103;DHT22;24847;48.218;16.414;2023-04-25T00:13:22;11.00;99.90
39103;DHT22;24847;48.218;16.414;2023-04-25T00:18:26;11.20;99.90
39103;DHT22;24847;48.218;16.414;2023-04-25T00:23:29;11.30;99.90
39103;DHT22;24847;48.218;16.414;2023-04-25T00:28:32;11.20;99.90
39103;DHT22;24847;48.218;16.414;2023-04-25T00:33:35;11.00;99.90
39103;DHT22;24847;48.218;16.414;2023-04-25T00:38:37;10.90;99.90
39103;DHT22;24847;48.218;16.414;2023-04-25T00:43:41;10.80;99.90
39103;DHT22;24847;48.218;16.414;2023-04-25T00:48:44;11.00;99.90
39103;DHT22;24847;48.218;16.414;2023-04-25T00:53:46;10.80;99.90
39103;DHT22;24847;48.218;16.414;2023-04-25T00:58:53;10.80;99.90
39103;DHT22;24847;48.218;16.414;2023-04-25T01:03:58;10.90;99.90
39103;DHT22;24847;48.218;16.414;2023-04-25T01:09:02;10.90;99.90
39103;DHT22;24847;48.218;16.414;2023-04-25T01:14:06;11.00;99.90
39103;DHT22;24847;48.218;16.414;2023-04-25T01:19:10;10.70;99.90
39103;DHT22;24847;48.218;16.414;2023-04-25T01:24:14;10.60;99.90
39103;DHT22;24847;48.218;16.414;2023-04-25T01:29:17;10.90;99.90
39103;DHT22;24847;48.218;16.414;2023-04-25T01:34:20;10.80;99.90
39103;DHT22;24847;48.218;16.414;2023-04-25T01:39:24;10.70;99.90
39103;DHT22;24847;48.218;16.414;2023-04-25T01:44:26;10.70;99.90
39103;DHT22;24847;48.218;16.414;2023-04-25T01:49:29;10.80;99.90
39103;DHT22;24847;48.218;16.414;2023-04-25T01:54:32;10.80;99.90
39103;DHT22;24847;48.218;16.414;2023-04-25T01:59:35;10.70;99.90
39103;DHT22;24847;48.218;16.414;2023-04-25T02:04:38;10.70;99.90
39103;DHT22;24847;48.218;16.414;2023-04-25T02:09:41;10.50;99.90
39103;DHT22;24847;48.218;16.414;2023-04-25T02:14:44;10.60;99.90
39103;DHT22;24847;48.218;16.414;2023-04-25T02:19:46;10.90;99.90
39103;DHT22;24847;48.218;16.414;2023-04-25T02:24:49;10.60;99.90
39103;DHT22;24847;48.218;16.414;2023-04-25T02:29:52;10.60;99.90
39103;DHT22;24847;48.218;16.414;2023-04-25T02:34:54;10.70;99.90
39103;DHT22;24847;48.218;16.414;2023-04-25T02:39:57;10.60;99.90
39103;DHT22;24847;48.218;16.414;2023-04-25T02:44:59;10.70;99.90
39103;DHT22;24847;48.218;16.414;2023-04-25T02:50:03;10.70;99.90
39103;DHT22;24847;48.218;16.414;2023-04-25T02:55:08;10.50;99.90
39103;DHT22;24847;48.218;16.414;2023-04-25T03:00:12;10.40;99.90
39103;DHT22;24847;48.218;16.414;2023-04-25T03:05:15;10.30;99.90
39103;DHT22;24847;48.218;16.414;2023-04-25T03:10:20;10.30;99.90
39103;DHT22;24847;48.218;16.414;2023-04-25T03:15:22;10.40;99.90
39103;DHT22;24847;48.218;16.414;2023-04-25T03:20:24;10.20;99.90
39103;DHT22;24847;48.218;16.414;2023-04-25T03:25:28;10.40;99.90
39103;DHT22;24847;48.218;16.414;2023-04-25T03:30:30;10.40;99.90
39103;DHT22;24847;48.218;16.414;2023-04-25T03:35:32;10.20;99.90
39103;DHT22;24847;48.218;16.414;2023-04-25T03:40:36;10.30;99.90
39103;DHT22;24847;48.218;16.414;2023-04-25T03:45:38;10.30;99.90
39103;DHT22;24847;48.218;16.414;2023-04-25T03:50:41;10.20;99.90
39103;DHT22;24847;48.218;16.414;2023-04-25T03:55:44;10.20;99.90
39103;DHT22;24847;48.218;16.414;2023-04-25T04:00:47;10.20;99.90
39103;DHT22;24847;48.218;16.414;2023-04-25T04:05:49;10.20;99.90
39103;DHT22;24847;48.218;16.414;2023-04-25T04:10:53;10.10;99.90
39103;DHT22;24847;48.218;16.414;2023-04-25T04:15:55;10.00;99.90
39103;DHT22;24847;48.218;16.414;2023-04-25T04:20:58;9.90;99.90
39103;DHT22;24847;48.218;16.414;2023-04-25T04:26:02;9.80;99.90
39103;DHT22;24847;48.218;16.414;2023-04-25T04:31:04;10.00;99.90
39103;DHT22;24847;48.218;16.414;2023-04-25T04:36:07;9.80;99.90
39103;DHT22;24847;48.218;16.414;2023-04-25T04:41:10;9.90;99.90
39103;DHT22;24847;48.218;16.414;2023-04-25T04:46:13;10.00;99.90
39103;DHT22;24847;48.218;16.414;2023-04-25T04:51:15;9.70;99.90
39103;DHT22;24847;48.218;16.414;2023-04-25T04:56:19;10.00;99.90
39103;DHT22;24847;48.218;16.414;2023-04-25T05:01:24;9.80;99.90
39103;DHT22;24847;48.218;16.414;2023-04-25T05:06:27;10.00;99.90
39103;DHT22;24847;48.218;16.414;2023-04-25T05:11:32;9.80;99.90
39103;DHT22;24847;48.218;16.414;2023-04-25T05:16:34;9.90;99.90
39103;DHT22;24847;48.218;16.414;2023-04-25T05:21:36;10.00;99.90
39103;DHT22;24847;48.218;16.414;2023-04-25T05:26:40;10.00;99.90
39103;DHT22;24847;48.218;16.414;2023-04-25T05:31:42;10.10;99.90
39103;DHT22;24847;48.218;16.414;2023-04-25T05:36:45;10.10;99.90
39103;DHT22;24847;48.218;16.414;2023-04-25T05:41:51;10.00;99.90
39103;DHT22;24847;48.218;16.414;2023-04-25T05:46:53;10.00;99.90
39103;DHT22;24847;48.218;16.414;2023-04-25T05:51:56;9.90;99.90
39103;DHT22;24847;48.218;16.414;2023-04-25T05:56:59;10.00;99.90
39103;DHT22;24847;48.218;16.414;2023-04-25T06:02:03;10.40;99.90
39103;DHT22;24847;48.218;16.414;2023-04-25T06:07:05;10.80;99.90
39103;DHT22;24847;48.218;16.414;2023-04-25T06:12:09;11.90;99.90
39103;DHT22;24847;48.218;16.414;2023-04-25T06:17:11;12.90;99.90
39103;DHT22;24847;48.218;16.414;2023-04-25T06:22:14;12.70;99.90
39103;DHT22;24847;48.218;16.414;2023-04-25T06:27:17;13.20;99.90
39103;DHT22;24847;48.218;16.414;2023-04-25T06:32:23;14.00;99.90
39103;DHT22;24847;48.218;16.414;2023-04-25T06:37:26;14.10;99.90
39103;DHT22;24847;48.218;16.414;2023-04-25T06:42:29;14.60;99.90
39103;DHT22;24847;48.218;16.414;2023-04-25T06:47:32;14.60;99.90
39103;DHT22;24847;48.218;16.414;2023-04-25T06:52:34;15.10;99.90
39103;DHT22;24847;48.218;16.414;2023-04-25T06:57:37;16.10;99.90
39103;DHT22;24847;48.218;16.414;2023-04-25T07:02:40;16.70;99.90
39103;DHT22;24847;48.218;16.414;2023-04-25T07:07:44;16.40;99.90
39103;DHT22;24847;48.218;16.414;2023-04-25T07:12:47;15.70;99.90
39103;DHT22;24847;48.218;16.414;2023-04-25T07:17:50;16.10;99.90
39103;DHT22;24847;48.218;16.414;2023-04-25T07:22:52;15.90;99.90
39103;DHT22;24847;48.218;16.414;2023-04-25T07:27:56;16.50;99.90
39103;DHT22;24847;48.218;16.414;2023-04-25T07:32:58;17.00;99.90
39103;DHT22;24847;48.218;16.414;2023-04-25T07:38:01;17.90;99.90
39103;DHT22;24847;48.218;16.414;2023-04-25T07:43:05;17.50;99.90
39103;DHT22;24847;48.218;16.414;2023-04-25T07:48:07;17.10;99.90
39103;DHT22;24847;48.218;16.414;2023-04-25T07:53:09;16.50;99.90
39103;DHT22;24847;48.218;16.414;2023-04-25T07:58:13;17.40;99.90
39103;DHT22;24847;48.218;16.414;2023-04-25T08:03:15;17.60;99.90
39103;DHT22;24847;48.218;16.414;2023-04-25T08:08:18;18.10;99.90
39103;DHT22;24847;48.218;16.414;2023-04-25T08:13:22;17.20;99.90
39103;DHT22;24847;48.218;16.414;2023-04-25T08:18:24;18.10;99.90
39103;DHT22;24847;48.218;16.414;2023-04-25T08:23:26;17.20;99.90
39103;DHT22;24847;48.218;16.414;2023-04-25T08:28:29;16.90;99.90
39103;DHT22;24847;48.218;16.414;2023-04-25T08:33:36;17.70;99.90
39103;DHT22;24847;48.218;16.414;2023-04-25T08:38:41;15.20;99.90
39103;DHT22;24847;48.218;16.414;2023-04-25T08:43:45;14.10;99.90
39103;DHT22;24847;48.218;16.414;2023-04-25T08:48:49;15.60;99.90
39103;DHT22;24847;48.218;16.414;2023-04-25T08:53:52;17.40;99.90
39103;DHT22;24847;48.218;16.414;2023-04-25T08:58:57;17.40;99.90
39103;DHT22;24847;48.218;16.414;2023-04-25T09:03:59;17.60;99.60
39103;DHT22;24847;48.218;16.414;2023-04-25T09:09:03;15.90;99.90
39103;DHT22;24847;48.218;16.414;2023-04-25T09:14:15;15.80;99.90
39103;DHT22;24847;48.218;16.414;2023-04-25T09:19:21;17.20;99.90
39103;DHT22;24847;48.218;16.414;2023-04-25T09:24:34;16.40;98.80
39103;DHT22;24847;48.218;16.414;2023-04-25T09:29:39;15.10;99.90
39103;DHT22;24847;48.218;16.414;2023-04-25T09:34:43;15.00;99.90
39103;DHT22;24847;48.218;16.414;2023-04-25T09:39:50;14.80;99.90
39103;DHT22;24847;48.218;16.414;2023-04-25T09:44:56;14.30;99.90
39103;DHT22;24847;48.218;16.414;2023-04-25T09:49:59;13.90;99.90
39103;DHT22;24847;48.218;16.414;2023-04-25T09:55:01;13.80;99.90
39103;DHT22;24847;48.218;16.414;2023-04-25T10:00:07;13.60;99.90
39103;DHT22;24847;48.218;16.414;2023-04-25T10:05:13;14.00;99.90
39103;DHT22;24847;48.218;16.414;2023-04-25T10:10:16;14.10;99.90
39103;DHT22;24847;48.218;16.414;2023-04-25T10:15:22;13.90;99.90
39103;DHT22;24847;48.218;16.414;2023-04-25T10:20:25;13.30;99.90
39103;DHT22;24847;48.218;16.414;2023-04-25T10:25:27;13.20;99.90
39103;DHT22;24847;48.218;16.414;2023-04-25T10:30:31;14.50;99.90
39103;DHT22;24847;48.218;16.414;2023-04-25T10:35:33;15.40;99.90
39103;DHT22;24847;48.218;16.414;2023-04-25T10:40:36;15.40;99.90
39103;DHT22;24847;48.218;16.414;2023-04-25T10:45:52;16.10;99.90
39103;DHT22;24847;48.218;16.414;2023-04-25T10:51:07;16.30;99.90
39103;DHT22;24847;48.218;16.414;2023-04-25T10:56:10;16.30;99.90
39103;DHT22;24847;48.218;16.414;2023-04-25T11:01:19;15.80;99.90
39103;DHT22;24847;48.218;16.414;2023-04-25T11:06:32;15.90;99.90
39103;DHT22;24847;48.218;16.414;2023-04-25T11:11:54;15.80;99.90
39103;DHT22;24847;48.218;16.414;2023-04-25T11:16:58;16.00;99.90
39103;DHT22;24847;48.218;16.414;2023-04-25T11:22:02;16.30;99.90
39103;DHT22;24847;48.218;16.414;2023-04-25T11:27:05;16.50;99.90
39103;DHT22;24847;48.218;16.414;2023-04-25T11:32:09;16.00;99.90
39103;DHT22;24847;48.218;16.414;2023-04-25T11:37:11;15.60;99.90
39103;DHT22;24847;48.218;16.414;2023-04-25T11:42:14;15.20;99.90
39103;DHT22;24847;48.218;16.414;2023-04-25T11:47:17;13.80;99.90
39103;DHT22;24847;48.218;16.414;2023-04-25T11:52:20;13.80;99.90
39103;DHT22;24847;48.218;16.414;2023-04-25T11:57:22;13.60;99.90
39103;DHT22;24847;48.218;16.414;2023-04-25T12:02:26;13.30;99.90
39103;DHT22;24847;48.218;16.414;2023-04-25T12:07:29;13.40;99.90
39103;DHT22;24847;48.218;16.414;2023-04-25T12:12:32;13.50;99.90
39103;DHT22;24847;48.218;16.414;2023-04-25T12:17:36;13.50;99.90
39103;DHT22;24847;48.218;16.414;2023-04-25T12:22:40;13.70;99.90
39103;DHT22;24847;48.218;16.414;2023-04-25T12:27:45;14.10;99.90
39103;DHT22;24847;48.218;16.414;2023-04-25T12:32:50;14.40;99.90
39103;DHT22;24847;48.218;16.414;2023-04-25T12:37:53;14.40;99.90
39103;DHT22;24847;48.218;16.414;2023-04-25T12:42:55;14.20;99.90
39103;DHT22;24847;48.218;16.414;2023-04-25T12:47:59;14.30;99.90
39103;DHT22;24847;48.218;16.414;2023-04-25T12:53:01;14.00;99.90
39103;DHT22;24847;48.218;16.414;2023-04-25T12:58:04;14.20;99.90
39103;DHT22;24847;48.218;16.414;2023-04-25T13:03:08;14.40;99.90
39103;DHT22;24847;48.218;16.414;2023-04-25T13:08:11;14.20;99.90
39103;DHT22;24847;48.218;16.414;2023-04-25T13:13:13;14.10;99.90
39103;DHT22;24847;48.218;16.414;2023-04-25T13:18:19;14.20;99.90
39103;DHT22;24847;48.218;16.414;2023-04-25T13:23:22;14.20;99.90
39103;DHT22;24847;48.218;16.414;2023-04-25T13:28:24;14.40;99.90
39103;DHT22;24847;48.218;16.414;2023-04-25T13:33:28;14.70;99.90
39103;DHT22;24847;48.218;16.414;2023-04-25T13:38:30;14.30;99.90
39103;DHT22;24847;48.218;16.414;2023-04-25T13:43:32;14.40;99.90
39103;DHT22;24847;48.218;16.414;2023-04-25T13:48:37;14.60;99.90
39103;DHT22;24847;48.218;16.414;2023-04-25T13:53:39;14.70;99.90
39103;DHT22;24847;48.218;16.414;2023-04-25T13:58:41;15.00;99.90
39103;DHT22;24847;48.218;16.414;2023-04-25T14:03:45;14.90;99.90
39103;DHT22;24847;48.218;16.414;2023-04-25T14:08:47;15.00;99.90
39103;DHT22;24847;48.218;16.414;2023-04-25T14:13:50;15.00;99.90
39103;DHT22;24847;48.218;16.414;2023-04-25T14:18:53;14.90;99.90
39103;DHT22;24847;48.218;16.414;2023-04-25T14:23:56;14.90;99.90
39103;DHT22;24847;48.218;16.414;2023-04-25T14:28:58;14.10;99.90
39103;DHT22;24847;48.218;16.414;2023-04-25T14:34:02;14.30;99.90
39103;DHT22;24847;48.218;16.414;2023-04-25T14:39:04;13.90;99.90
39103;DHT22;24847;48.218;16.414;2023-04-25T14:44:07;14.10;99.90
39103;DHT22;24847;48.218;16.414;2023-04-25T14:49:10;13.50;99.90
39103;DHT22;24847;48.218;16.414;2023-04-25T14:54:13;13.50;99.90
39103;DHT22;24847;48.218;16.414;2023-04-25T14:59:15;13.90;99.90
39103;DHT22;24847;48.218;16.414;2023-04-25T15:04:18;13.50;99.90
39103;DHT22;24847;48.218;16.414;2023-04-25T15:09:21;13.60;99.90
39103;DHT22;24847;48.218;16.414;2023-04-25T15:14:24;13.50;99.90
39103;DHT22;24847;48.218;16.414;2023-04-25T15:19:28;13.70;99.90
39103;DHT22;24847;48.218;16.414;2023-04-25T15:24:31;13.30;99.90
39103;DHT22;24847;48.218;16.414;2023-04-25T15:29:33;13.00;99.90
39103;DHT22;24847;48.218;16.414;2023-04-25T15:34:38;13.10;99.90
39103;DHT22;24847;48.218;16.414;2023-04-25T15:39:40;13.00;99.90
39103;DHT22;24847;48.218;16.414;2023-04-25T15:44:42;12.90;99.90
39103;DHT22;24847;48.218;16.414;2023-04-25T15:49:45;13.20;99.90
39103;DHT22;24847;48.218;16.414;2023-04-25T15:54:48;12.70;99.90
39103;DHT22;24847;48.218;16.414;2023-04-25T15:59:51;13.00;99.90
39103;DHT22;24847;48.218;16.414;2023-04-25T16:04:54;12.40;99.90
39103;DHT22;24847;48.218;16.414;2023-04-25T16:09:57;12.60;99.90
39103;DHT22;24847;48.218;16.414;2023-04-25T16:15:00;12.80;99.90
39103;DHT22;24847;48.218;16.414;2023-04-25T16:20:04;12.60;99.90
39103;DHT22;24847;48.218;16.414;2023-04-25T16:25:10;12.50;99.90
39103;DHT22;24847;48.218;16.414;2023-04-25T16:30:12;12.30;99.90
39103;DHT22;24847;48.218;16.414;2023-04-25T16:35:16;12.70;99.90
39103;DHT22;24847;48.218;16.414;2023-04-25T16:40:19;12.60;99.90
39103;DHT22;24847;48.218;16.414;2023-04-25T16:45:21;12.50;99.90
39103;DHT22;24847;48.218;16.414;2023-04-25T16:50:25;12.30;99.90
39103;DHT22;24847;48.218;16.414;2023-04-25T16:55:27;12.30;99.90
39103;DHT22;24847;48.218;16.414;2023-04-25T17:00:31;12.20;99.90
39103;DHT22;24847;48.218;16.414;2023-04-25T17:05:35;12.00;99.90
39103;DHT22;24847;48.218;16.414;2023-04-25T17:10:37;12.20;99.90
39103;DHT22;24847;48.218;16.414;2023-04-25T17:15:39;12.00;99.90
39103;DHT22;24847;48.218;16.414;2023-04-25T17:20:43;12.30;99.90
39103;DHT22;24847;48.218;16.414;2023-04-25T17:25:46;11.90;99.90
39103;DHT22;24847;48.218;16.414;2023-04-25T17:30:48;12.30;99.90
39103;DHT22;24847;48.218;16.414;2023-04-25T17:35:52;12.20;99.90
39103;DHT22;24847;48.218;16.414;2023-04-25T17:40:55;12.30;99.90
39103;DHT22;24847;48.218;16.414;2023-04-25T17:45:58;12.20;99.90
39103;DHT22;24847;48.218;16.414;2023-04-25T17:51:01;12.40;99.90
39103;DHT22;24847;48.218;16.414;2023-04-25T17:56:04;12.30;99.90
39103;DHT22;24847;48.218;16.414;2023-04-25T18:01:08;12.10;99.90
39103;DHT22;24847;48.218;16.414;2023-04-25T18:06:12;11.80;99.90
39103;DHT22;24847;48.218;16.414;2023-04-25T18:11:15;11.40;99.90
39103;DHT22;24847;48.218;16.414;2023-04-25T18:16:18;11.60;99.90
39103;DHT22;24847;48.218;16.414;2023-04-25T18:21:23;11.80;99.90
39103;DHT22;24847;48.218;16.414;2023-04-25T18:26:27;11.80;99.90
39103;DHT22;24847;48.218;16.414;2023-04-25T18:31:30;11.80;99.90
39103;DHT22;24847;48.218;16.414;2023-04-25T18:36:34;11.10;99.90
39103;DHT22;24847;48.218;16.414;2023-04-25T18:41:37;11.30;99.90
39103;DHT22;24847;48.218;16.414;2023-04-25T18:46:40;11.30;99.90
39103;DHT22;24847;48.218;16.414;2023-04-25T18:51:47;11.00;99.90
39103;DHT22;24847;48.218;16.414;2023-04-25T18:56:51;11.30;99.90
39103;DHT22;24847;48.218;16.414;2023-04-25T19:01:55;11.10;99.90
39103;DHT22;24847;48.218;16.414;2023-04-25T19:07:02;11.20;99.90
39103;DHT22;24847;48.218;16.414;2023-04-25T19:12:05;11.30;99.90
39103;DHT22;24847;48.218;16.414;2023-04-25T19:17:08;10.80;99.90
39103;DHT22;24847;48.218;16.414;2023-04-25T19:22:13;10.60;99.90
39103;DHT22;24847;48.218;16.414;2023-04-25T19:27:18;10.40;99.90
39103;DHT22;24847;48.218;16.414;2023-04-25T19:32:21;10.60;99.90
39103;DHT22;24847;48.218;16.414;2023-04-25T19:37:25;10.70;99.90
39103;DHT22;24847;48.218;16.414;2023-04-25T19:42:27;10.50;99.90
39103;DHT22;24847;48.218;16.414;2023-04-25T19:47:33;10.50;99.90
39103;DHT22;24847;48.218;16.414;2023-04-25T19:52:40;10.50;99.90
39103;DHT22;24847;48.218;16.414;2023-04-25T19:57:42;10.80;99.90
39103;DHT22;24847;48.218;16.414;2023-04-25T20:02:46;10.40;99.90
39103;DHT22;24847;48.218;16.414;2023-04-25T20:07:52;10.30;99.90
39103;DHT22;24847;48.218;16.414;2023-04-25T20:12:55;10.10;99.90
39103;DHT22;24847;48.218;16.414;2023-04-25T20:17:58;10.50;99.90
39103;DHT22;24847;48.218;16.414;2023-04-25T20:23:02;10.70;99.90
39103;DHT22;24847;48.218;16.414;2023-04-25T20:28:04;10.50;99.90
39103;DHT22;24847;48.218;16.414;2023-04-25T20:33:07;10.50;99.90
39103;DHT22;24847;48.218;16.414;2023-04-25T20:38:10;10.50;99.90
39103;DHT22;24847;48.218;16.414;2023-04-25T20:43:14;10.30;99.90
39103;DHT22;24847;48.218;16.414;2023-04-25T20:48:17;10.30;99.90
39103;DHT22;24847;48.218;16.414;2023-04-25T20:53:20;10.60;99.90
39103;DHT22;24847;48.218;16.414;2023-04-25T20:58:24;10.70;99.90
39103;DHT22;24847;48.218;16.414;2023-04-25T21:03:27;10.40;99.90
39103;DHT22;24847;48.218;16.414;2023-04-25T21:08:31;10.70;99.90
39103;DHT22;24847;48.218;16.414;2023-04-25T21:13:35;10.90;99.90
39103;DHT22;24847;48.218;16.414;2023-04-25T21:18:37;10.70;99.90
39103;DHT22;24847;48.218;16.414;2023-04-25T21:23:42;10.40;99.90
39103;DHT22;24847;48.218;16.414;2023-04-25T21:28:44;10.00;99.90
39103;DHT22;24847;48.218;16.414;2023-04-25T21:33:47;10.40;99.90
39103;DHT22;24847;48.218;16.414;2023-04-25T21:38:51;10.30;99.90
39103;DHT22;24847;48.218;16.414;2023-04-25T21:43:53;10.10;99.90
39103;DHT22;24847;48.218;16.414;2023-04-25T21:48:56;10.30;99.90
39103;DHT22;24847;48.218;16.414;2023-04-25T21:54:00;10.30;99.90
39103;DHT22;24847;48.218;16.414;2023-04-25T21:59:04;10.10;99.90
39103;DHT22;24847;48.218;16.414;2023-04-25T22:04:07;10.10;99.90
39103;DHT22;24847;48.218;16.414;2023-04-25T22:09:10;9.70;99.90
39103;DHT22;24847;48.218;16.414;2023-04-25T22:14:12;9.70;99.90
39103;DHT22;24847;48.218;16.414;2023-04-25T22:19:16;9.70;99.90
39103;DHT22;24847;48.218;16.414;2023-04-25T22:24:19;9.70;99.90
39103;DHT22;24847;48.218;16.414;2023-04-25T22:29:22;9.50;99.90
39103;DHT22;24847;48.218;16.414;2023-04-25T22:34:25;9.50;99.90
39103;DHT22;24847;48.218;16.414;2023-04-25T22:39:29;9.60;99.90
39103;DHT22;24847;48.218;16.414;2023-04-25T22:44:32;9.70;99.90
39103;DHT22;24847;48.218;16.414;2023-04-25T22:49:36;9.60;99.90
39103;DHT22;24847;48.218;16.414;2023-04-25T22:54:40;9.70;99.90
39103;DHT22;24847;48.218;16.414;2023-04-25T22:59:42;9.70;99.90
39103;DHT22;24847;48.218;16.414;2023-04-25T23:04:45;9.80;99.90
39103;DHT22;24847;48.218;16.414;2023-04-25T23:09:48;9.70;99.90
39103;DHT22;24847;48.218;16.414;2023-04-25T23:14:53;9.70;99.90
39103;DHT22;24847;48.218;16.414;2023-04-25T23:19:55;9.80;99.90
39103;DHT22;24847;48.218;16.414;2023-04-25T23:25:00;9.60;99.90
39103;DHT22;24847;48.218;16.414;2023-04-25T23:30:02;9.70;99.90
39103;DHT22;24847;48.218;16.414;2023-04-25T23:35:06;9.50;99.90
39103;DHT22;24847;48.218;16.414;2023-04-25T23:40:11;9.60;99.90
39103;DHT22;24847;48.218;16.414;2023-04-25T23:45:13;9.40;99.90
39103;DHT22;24847;48.218;16.414;2023-04-25T23:50:16;9.30;99.90
39103;DHT22;24847;48.218;16.414;2023-04-25T23:55:20;9.40;99.90
